North Sydney, Canada
Current Conditions -  °F | °C
As of 5:00 PM on Thursday 20 Nov 2014 (Local Time) from CYQY Reporting Station
Rain Showers Rain Showers  
Wind Chill: 35°   Ceiling: 3000
Heat Index: 43°   Visibility: 10mi
Dew Point: 37°   Wind: 16mph
Humidity: 81%   Direction: 170°S
Pressure: 29.87"   Gusts: 23mph
Location:  46.21°N, 60.25°W
Report Text: CYQY 202100Z 17014G20KT 10SM -SHRA FEW018 BKN030 BKN090 06/03 A2987 RMK SC2SC4AC1 SLP117
Loading
Personal Weather Stations






























Interactive Weather Map New forecast layout! Learn more

10-Day Weather Forecast

Advertisements
Track Severe Weather on mobile